sensor_id;sensor_type;location;lat;lon;timestamp;temperature;humidity
11132;DHT22;5620;53.570;9.718;2022-12-18T00:02:15;-3.20;1.00
11132;DHT22;5620;53.570;9.718;2022-12-18T00:04:40;-3.20;1.00
11132;DHT22;5620;53.570;9.718;2022-12-18T00:07:07;-3.20;1.00
11132;DHT22;5620;53.570;9.718;2022-12-18T00:09:34;-3.20;1.00
11132;DHT22;5620;53.570;9.718;2022-12-18T00:12:00;-3.30;1.00
11132;DHT22;5620;53.570;9.718;2022-12-18T00:14:27;-3.20;1.00
11132;DHT22;5620;53.570;9.718;2022-12-18T00:16:53;-3.30;1.00
11132;DHT22;5620;53.570;9.718;2022-12-18T00:19:18;-3.30;1.00
11132;DHT22;5620;53.570;9.718;2022-12-18T00:21:44;-3.30;1.00
11132;DHT22;5620;53.570;9.718;2022-12-18T00:24:12;-3.30;1.00
11132;DHT22;5620;53.570;9.718;2022-12-18T00:26:39;-3.30;1.00
11132;DHT22;5620;53.570;9.718;2022-12-18T00:29:20;-3.30;1.00
11132;DHT22;5620;53.570;9.718;2022-12-18T00:31:46;-3.30;1.00
11132;DHT22;5620;53.570;9.718;2022-12-18T00:34:15;-3.30;1.00
11132;DHT22;5620;53.570;9.718;2022-12-18T00:36:42;-3.30;1.00
11132;DHT22;5620;53.570;9.718;2022-12-18T00:39:14;-3.30;1.00
11132;DHT22;5620;53.570;9.718;2022-12-18T00:41:40;-3.30;1.00
11132;DHT22;5620;53.570;9.718;2022-12-18T00:44:08;-3.30;1.00
11132;DHT22;5620;53.570;9.718;2022-12-18T00:46:35;-3.30;1.00
11132;DHT22;5620;53.570;9.718;2022-12-18T00:49:01;-3.30;1.00
11132;DHT22;5620;53.570;9.718;2022-12-18T00:51:28;-3.30;1.00
11132;DHT22;5620;53.570;9.718;2022-12-18T00:53:55;-3.30;1.00
11132;DHT22;5620;53.570;9.718;2022-12-18T00:56:26;-3.30;1.00
11132;DHT22;5620;53.570;9.718;2022-12-18T00:58:51;-3.30;1.00
11132;DHT22;5620;53.570;9.718;2022-12-18T01:01:17;-3.30;1.00
11132;DHT22;5620;53.570;9.718;2022-12-18T01:03:45;-3.30;1.00
11132;DHT22;5620;53.570;9.718;2022-12-18T01:06:13;-3.30;1.00
11132;DHT22;5620;53.570;9.718;2022-12-18T01:08:41;-3.30;1.00
11132;DHT22;5620;53.570;9.718;2022-12-18T01:11:11;-3.30;1.00
11132;DHT22;5620;53.570;9.718;2022-12-18T01:13:38;-3.30;1.00
11132;DHT22;5620;53.570;9.718;2022-12-18T01:16:05;-3.30;1.00
11132;DHT22;5620;53.570;9.718;2022-12-18T01:18:32;-3.40;1.00
11132;DHT22;5620;53.570;9.718;2022-12-18T01:20:58;-3.40;1.00
11132;DHT22;5620;53.570;9.718;2022-12-18T01:23:27;-3.40;1.00
11132;DHT22;5620;53.570;9.718;2022-12-18T01:25:54;-3.40;1.00
11132;DHT22;5620;53.570;9.718;2022-12-18T01:28:21;-3.40;1.00
11132;DHT22;5620;53.570;9.718;2022-12-18T01:30:46;-3.40;1.00
11132;DHT22;5620;53.570;9.718;2022-12-18T01:33:12;-3.40;1.00
11132;DHT22;5620;53.570;9.718;2022-12-18T01:35:42;-3.40;1.00
11132;DHT22;5620;53.570;9.718;2022-12-18T01:38:08;-3.40;1.00
11132;DHT22;5620;53.570;9.718;2022-12-18T01:40:34;-3.40;1.00
11132;DHT22;5620;53.570;9.718;2022-12-18T01:43:00;-3.40;1.00
11132;DHT22;5620;53.570;9.718;2022-12-18T01:45:29;-3.40;1.00
11132;DHT22;5620;53.570;9.718;2022-12-18T01:48:03;-3.40;1.00
11132;DHT22;5620;53.570;9.718;2022-12-18T01:50:40;-3.50;1.00
11132;DHT22;5620;53.570;9.718;2022-12-18T01:53:25;-3.50;1.00
11132;DHT22;5620;53.570;9.718;2022-12-18T01:55:53;-3.50;1.00
11132;DHT22;5620;53.570;9.718;2022-12-18T02:00:59;-3.50;99.90
11132;DHT22;5620;53.570;9.718;2022-12-18T02:03:25;-3.50;1.00
11132;DHT22;5620;53.570;9.718;2022-12-18T02:05:57;-3.60;99.90
11132;DHT22;5620;53.570;9.718;2022-12-18T02:11:49;-3.60;99.90
11132;DHT22;5620;53.570;9.718;2022-12-18T02:14:38;-3.70;99.90
11132;DHT22;5620;53.570;9.718;2022-12-18T02:17:18;-3.70;99.90
11132;DHT22;5620;53.570;9.718;2022-12-18T02:28:23;-3.80;99.90
11132;DHT22;5620;53.570;9.718;2022-12-18T02:30:53;-3.70;99.90
11132;DHT22;5620;53.570;9.718;2022-12-18T02:33:26;-3.80;99.90
11132;DHT22;5620;53.570;9.718;2022-12-18T02:35:56;-3.80;99.90
11132;DHT22;5620;53.570;9.718;2022-12-18T02:38:25;-3.80;99.90
11132;DHT22;5620;53.570;9.718;2022-12-18T02:40:53;-3.80;99.90
11132;DHT22;5620;53.570;9.718;2022-12-18T02:43:20;-3.80;99.90
11132;DHT22;5620;53.570;9.718;2022-12-18T02:45:48;-3.80;99.90
11132;DHT22;5620;53.570;9.718;2022-12-18T02:48:17;-3.80;99.90
11132;DHT22;5620;53.570;9.718;2022-12-18T02:51:04;-3.80;99.90
11132;DHT22;5620;53.570;9.718;2022-12-18T02:54:07;-3.80;99.90
11132;DHT22;5620;53.570;9.718;2022-12-18T02:56:50;-3.90;99.90
11132;DHT22;5620;53.570;9.718;2022-12-18T02:59:56;-3.80;99.90
11132;DHT22;5620;53.570;9.718;2022-12-18T03:02:32;-3.90;99.90
11132;DHT22;5620;53.570;9.718;2022-12-18T03:05:13;-3.90;99.90
11132;DHT22;5620;53.570;9.718;2022-12-18T03:07:52;-3.90;99.90
11132;DHT22;5620;53.570;9.718;2022-12-18T03:10:26;-3.90;99.90
11132;DHT22;5620;53.570;9.718;2022-12-18T03:13:03;-3.90;99.90
11132;DHT22;5620;53.570;9.718;2022-12-18T03:15:34;-3.90;99.90
11132;DHT22;5620;53.570;9.718;2022-12-18T03:18:17;-3.90;99.90
11132;DHT22;5620;53.570;9.718;2022-12-18T03:20:46;-3.90;99.90
11132;DHT22;5620;53.570;9.718;2022-12-18T03:23:21;-3.90;99.90
11132;DHT22;5620;53.570;9.718;2022-12-18T03:25:50;-3.90;99.90
11132;DHT22;5620;53.570;9.718;2022-12-18T03:28:21;-3.90;99.90
11132;DHT22;5620;53.570;9.718;2022-12-18T03:30:52;-3.90;99.90
11132;DHT22;5620;53.570;9.718;2022-12-18T03:33:50;-3.90;99.90
11132;DHT22;5620;53.570;9.718;2022-12-18T03:36:12;-3.90;99.90
11132;DHT22;5620;53.570;9.718;2022-12-18T03:38:40;-3.90;99.90
11132;DHT22;5620;53.570;9.718;2022-12-18T03:41:16;-3.90;99.90
11132;DHT22;5620;53.570;9.718;2022-12-18T03:44:14;-3.90;99.90
11132;DHT22;5620;53.570;9.718;2022-12-18T03:49:57;-3.90;99.90
11132;DHT22;5620;53.570;9.718;2022-12-18T03:52:41;-3.90;99.90
11132;DHT22;5620;53.570;9.718;2022-12-18T03:55:10;-3.90;99.90
11132;DHT22;5620;53.570;9.718;2022-12-18T03:57:37;-3.90;99.90
11132;DHT22;5620;53.570;9.718;2022-12-18T04:00:11;-3.90;99.90
11132;DHT22;5620;53.570;9.718;2022-12-18T04:02:43;-3.90;99.90
11132;DHT22;5620;53.570;9.718;2022-12-18T04:05:11;-3.90;99.90
11132;DHT22;5620;53.570;9.718;2022-12-18T04:07:38;-3.90;99.90
11132;DHT22;5620;53.570;9.718;2022-12-18T04:10:06;-3.90;99.90
11132;DHT22;5620;53.570;9.718;2022-12-18T04:12:33;-3.90;99.90
11132;DHT22;5620;53.570;9.718;2022-12-18T04:14:59;-3.90;99.90
11132;DHT22;5620;53.570;9.718;2022-12-18T04:17:26;-3.90;99.90
11132;DHT22;5620;53.570;9.718;2022-12-18T04:19:53;-3.90;99.90
11132;DHT22;5620;53.570;9.718;2022-12-18T04:22:19;-3.90;99.90
11132;DHT22;5620;53.570;9.718;2022-12-18T04:24:46;-3.90;99.90
11132;DHT22;5620;53.570;9.718;2022-12-18T04:27:13;-3.90;99.90
11132;DHT22;5620;53.570;9.718;2022-12-18T04:29:41;-3.90;99.90
11132;DHT22;5620;53.570;9.718;2022-12-18T04:32:07;-3.90;99.90
11132;DHT22;5620;53.570;9.718;2022-12-18T04:34:34;-3.90;99.90
11132;DHT22;5620;53.570;9.718;2022-12-18T04:37:01;-3.90;99.90
11132;DHT22;5620;53.570;9.718;2022-12-18T04:39:28;-3.90;99.90
11132;DHT22;5620;53.570;9.718;2022-12-18T04:41:53;-3.90;99.90
11132;DHT22;5620;53.570;9.718;2022-12-18T04:44:20;-3.90;99.90
11132;DHT22;5620;53.570;9.718;2022-12-18T04:46:46;-3.90;99.90
11132;DHT22;5620;53.570;9.718;2022-12-18T04:49:12;-3.90;99.90
11132;DHT22;5620;53.570;9.718;2022-12-18T04:51:38;-3.90;99.90
11132;DHT22;5620;53.570;9.718;2022-12-18T04:54:05;-3.90;99.90
11132;DHT22;5620;53.570;9.718;2022-12-18T04:56:32;-3.90;99.90
11132;DHT22;5620;53.570;9.718;2022-12-18T04:58:58;-3.90;99.90
11132;DHT22;5620;53.570;9.718;2022-12-18T05:01:24;-3.90;99.90
11132;DHT22;5620;53.570;9.718;2022-12-18T05:03:51;-3.90;99.90
11132;DHT22;5620;53.570;9.718;2022-12-18T05:06:18;-3.90;99.90
11132;DHT22;5620;53.570;9.718;2022-12-18T05:08:43;-4.00;99.90
11132;DHT22;5620;53.570;9.718;2022-12-18T05:11:12;-4.00;99.90
11132;DHT22;5620;53.570;9.718;2022-12-18T05:13:40;-4.00;99.90
11132;DHT22;5620;53.570;9.718;2022-12-18T05:16:06;-4.00;99.90
11132;DHT22;5620;53.570;9.718;2022-12-18T05:18:33;-4.00;99.90
11132;DHT22;5620;53.570;9.718;2022-12-18T05:21:00;-4.00;99.90
11132;DHT22;5620;53.570;9.718;2022-12-18T05:23:26;-4.00;99.90
11132;DHT22;5620;53.570;9.718;2022-12-18T05:26:01;-4.00;99.90
11132;DHT22;5620;53.570;9.718;2022-12-18T05:28:31;-4.00;99.90
11132;DHT22;5620;53.570;9.718;2022-12-18T05:31:01;-4.00;99.90
11132;DHT22;5620;53.570;9.718;2022-12-18T05:33:30;-3.90;99.90
11132;DHT22;5620;53.570;9.718;2022-12-18T05:35:58;-3.90;99.90
11132;DHT22;5620;53.570;9.718;2022-12-18T05:38:29;-3.90;99.90
11132;DHT22;5620;53.570;9.718;2022-12-18T05:40:55;-4.00;99.90
11132;DHT22;5620;53.570;9.718;2022-12-18T05:43:24;-3.90;99.90
11132;DHT22;5620;53.570;9.718;2022-12-18T05:45:53;-3.90;99.90
11132;DHT22;5620;53.570;9.718;2022-12-18T05:48:21;-3.90;99.90
11132;DHT22;5620;53.570;9.718;2022-12-18T05:50:48;-3.90;99.90
11132;DHT22;5620;53.570;9.718;2022-12-18T05:53:16;-3.90;99.90
11132;DHT22;5620;53.570;9.718;2022-12-18T05:55:44;-3.90;99.90
11132;DHT22;5620;53.570;9.718;2022-12-18T05:58:13;-3.90;99.90
11132;DHT22;5620;53.570;9.718;2022-12-18T06:00:41;-3.80;99.90
11132;DHT22;5620;53.570;9.718;2022-12-18T06:03:10;-3.80;99.90
11132;DHT22;5620;53.570;9.718;2022-12-18T06:05:40;-3.90;99.90
11132;DHT22;5620;53.570;9.718;2022-12-18T06:08:06;-3.90;99.90
11132;DHT22;5620;53.570;9.718;2022-12-18T06:10:32;-3.90;99.90
11132;DHT22;5620;53.570;9.718;2022-12-18T06:12:59;-3.90;99.90
11132;DHT22;5620;53.570;9.718;2022-12-18T06:15:25;-3.90;99.90
11132;DHT22;5620;53.570;9.718;2022-12-18T06:17:51;-3.90;99.90
11132;DHT22;5620;53.570;9.718;2022-12-18T06:20:16;-3.90;99.90
11132;DHT22;5620;53.570;9.718;2022-12-18T06:22:42;-3.90;99.90
11132;DHT22;5620;53.570;9.718;2022-12-18T06:25:09;-3.90;99.90
11132;DHT22;5620;53.570;9.718;2022-12-18T06:27:34;-3.90;99.90
11132;DHT22;5620;53.570;9.718;2022-12-18T06:30:00;-3.90;99.90
11132;DHT22;5620;53.570;9.718;2022-12-18T06:32:27;-4.00;99.90
11132;DHT22;5620;53.570;9.718;2022-12-18T06:34:53;-4.00;99.90
11132;DHT22;5620;53.570;9.718;2022-12-18T06:37:19;-4.00;99.90
11132;DHT22;5620;53.570;9.718;2022-12-18T06:39:45;-4.00;99.90
11132;DHT22;5620;53.570;9.718;2022-12-18T06:42:11;-4.00;99.90
11132;DHT22;5620;53.570;9.718;2022-12-18T06:44:37;-4.00;99.90
11132;DHT22;5620;53.570;9.718;2022-12-18T06:47:02;-4.00;99.90
11132;DHT22;5620;53.570;9.718;2022-12-18T06:49:30;-4.00;99.90
11132;DHT22;5620;53.570;9.718;2022-12-18T06:51:58;-4.00;99.90
11132;DHT22;5620;53.570;9.718;2022-12-18T06:54:24;-4.00;99.90
11132;DHT22;5620;53.570;9.718;2022-12-18T06:56:50;-4.00;99.90
11132;DHT22;5620;53.570;9.718;2022-12-18T06:59:16;-4.00;99.90
11132;DHT22;5620;53.570;9.718;2022-12-18T07:01:43;-4.00;99.90
11132;DHT22;5620;53.570;9.718;2022-12-18T07:04:09;-4.00;99.90
11132;DHT22;5620;53.570;9.718;2022-12-18T07:06:36;-3.90;99.90
11132;DHT22;5620;53.570;9.718;2022-12-18T07:09:02;-3.90;99.90
11132;DHT22;5620;53.570;9.718;2022-12-18T07:11:32;-3.90;99.90
11132;DHT22;5620;53.570;9.718;2022-12-18T07:13:58;-3.90;99.90
11132;DHT22;5620;53.570;9.718;2022-12-18T07:16:25;-3.90;99.90
11132;DHT22;5620;53.570;9.718;2022-12-18T07:18:54;-3.90;99.90
11132;DHT22;5620;53.570;9.718;2022-12-18T07:21:23;-3.90;99.90
11132;DHT22;5620;53.570;9.718;2022-12-18T07:23:49;-3.80;99.90
11132;DHT22;5620;53.570;9.718;2022-12-18T07:26:19;-3.80;99.90
11132;DHT22;5620;53.570;9.718;2022-12-18T07:28:46;-3.80;99.90
11132;DHT22;5620;53.570;9.718;2022-12-18T07:31:15;-3.80;99.90
11132;DHT22;5620;53.570;9.718;2022-12-18T07:33:41;-3.80;99.90
11132;DHT22;5620;53.570;9.718;2022-12-18T07:36:09;-3.70;99.90
11132;DHT22;5620;53.570;9.718;2022-12-18T07:38:36;-3.70;99.90
11132;DHT22;5620;53.570;9.718;2022-12-18T07:41:10;-3.70;99.90
11132;DHT22;5620;53.570;9.718;2022-12-18T07:43:39;-3.70;99.90
11132;DHT22;5620;53.570;9.718;2022-12-18T07:46:06;-3.60;99.90
11132;DHT22;5620;53.570;9.718;2022-12-18T07:48:42;-3.60;99.90
11132;DHT22;5620;53.570;9.718;2022-12-18T07:51:09;-3.50;99.90
11132;DHT22;5620;53.570;9.718;2022-12-18T07:53:40;-3.50;99.90
11132;DHT22;5620;53.570;9.718;2022-12-18T07:56:09;-3.40;99.90
11132;DHT22;5620;53.570;9.718;2022-12-18T07:58:39;-3.40;99.90
11132;DHT22;5620;53.570;9.718;2022-12-18T08:01:08;-3.40;99.90
11132;DHT22;5620;53.570;9.718;2022-12-18T08:03:34;-3.30;99.90
11132;DHT22;5620;53.570;9.718;2022-12-18T08:06:01;-3.30;99.90
11132;DHT22;5620;53.570;9.718;2022-12-18T08:08:28;-3.20;99.90
11132;DHT22;5620;53.570;9.718;2022-12-18T08:10:56;-3.20;99.90
11132;DHT22;5620;53.570;9.718;2022-12-18T08:13:21;-3.10;99.90
11132;DHT22;5620;53.570;9.718;2022-12-18T08:16:00;-3.00;99.90
11132;DHT22;5620;53.570;9.718;2022-12-18T08:18:28;-2.90;99.90
11132;DHT22;5620;53.570;9.718;2022-12-18T08:20:55;-2.80;99.90
11132;DHT22;5620;53.570;9.718;2022-12-18T08:23:22;-2.80;99.90
11132;DHT22;5620;53.570;9.718;2022-12-18T08:25:48;-2.70;99.90
11132;DHT22;5620;53.570;9.718;2022-12-18T08:28:17;-2.70;99.90
11132;DHT22;5620;53.570;9.718;2022-12-18T08:30:43;-2.60;99.90
11132;DHT22;5620;53.570;9.718;2022-12-18T08:33:10;-2.60;99.90
11132;DHT22;5620;53.570;9.718;2022-12-18T08:35:37;-2.50;99.90
11132;DHT22;5620;53.570;9.718;2022-12-18T08:38:04;-2.50;99.90
11132;DHT22;5620;53.570;9.718;2022-12-18T08:40:30;-2.40;99.90
11132;DHT22;5620;53.570;9.718;2022-12-18T08:42:57;-2.40;99.90
11132;DHT22;5620;53.570;9.718;2022-12-18T08:45:24;-2.30;99.90
11132;DHT22;5620;53.570;9.718;2022-12-18T08:47:53;-2.30;99.90
11132;DHT22;5620;53.570;9.718;2022-12-18T08:50:19;-2.20;99.90
11132;DHT22;5620;53.570;9.718;2022-12-18T08:52:44;-2.20;99.90
11132;DHT22;5620;53.570;9.718;2022-12-18T08:55:11;-2.10;99.90
11132;DHT22;5620;53.570;9.718;2022-12-18T08:57:38;-2.00;99.90
11132;DHT22;5620;53.570;9.718;2022-12-18T09:00:07;-2.00;99.90
11132;DHT22;5620;53.570;9.718;2022-12-18T09:02:32;-1.90;99.90
11132;DHT22;5620;53.570;9.718;2022-12-18T09:04:59;-1.80;99.90
11132;DHT22;5620;53.570;9.718;2022-12-18T09:07:25;-1.70;99.90
11132;DHT22;5620;53.570;9.718;2022-12-18T09:09:52;-1.60;99.90
11132;DHT22;5620;53.570;9.718;2022-12-18T09:12:17;-1.60;99.90
11132;DHT22;5620;53.570;9.718;2022-12-18T09:14:44;-1.50;99.90
11132;DHT22;5620;53.570;9.718;2022-12-18T09:17:10;-1.30;99.90
11132;DHT22;5620;53.570;9.718;2022-12-18T09:19:37;-1.20;99.90
11132;DHT22;5620;53.570;9.718;2022-12-18T09:22:03;-1.20;99.90
11132;DHT22;5620;53.570;9.718;2022-12-18T09:24:29;-1.10;99.90
11132;DHT22;5620;53.570;9.718;2022-12-18T09:26:55;-1.00;99.90
11132;DHT22;5620;53.570;9.718;2022-12-18T09:29:25;-0.90;99.90
11132;DHT22;5620;53.570;9.718;2022-12-18T09:31:51;-0.90;99.90
11132;DHT22;5620;53.570;9.718;2022-12-18T09:34:19;-0.90;99.90
11132;DHT22;5620;53.570;9.718;2022-12-18T09:36:48;-0.80;99.90
11132;DHT22;5620;53.570;9.718;2022-12-18T09:39:15;-0.70;99.90
11132;DHT22;5620;53.570;9.718;2022-12-18T09:41:55;-0.60;99.90
11132;DHT22;5620;53.570;9.718;2022-12-18T09:44:41;-0.50;99.90
11132;DHT22;5620;53.570;9.718;2022-12-18T09:47:27;-0.40;99.90
11132;DHT22;5620;53.570;9.718;2022-12-18T09:50:04;-0.20;98.90
11132;DHT22;5620;53.570;9.718;2022-12-18T09:52:40;0.00;94.70
11132;DHT22;5620;53.570;9.718;2022-12-18T09:55:24;0.20;90.00
11132;DHT22;5620;53.570;9.718;2022-12-18T09:58:00;0.40;80.90
11132;DHT22;5620;53.570;9.718;2022-12-18T10:00:29;0.60;69.70
11132;DHT22;5620;53.570;9.718;2022-12-18T10:03:10;0.80;52.00
11132;DHT22;5620;53.570;9.718;2022-12-18T10:08:51;1.10;25.40
11132;DHT22;5620;53.570;9.718;2022-12-18T10:11:43;1.30;3.80
11132;DHT22;5620;53.570;9.718;2022-12-18T10:19:49;1.60;1.00
11132;DHT22;5620;53.570;9.718;2022-12-18T10:25:28;1.90;1.00
11132;DHT22;5620;53.570;9.718;2022-12-18T10:28:15;2.00;1.00
11132;DHT22;5620;53.570;9.718;2022-12-18T10:30:43;2.00;1.00
11132;DHT22;5620;53.570;9.718;2022-12-18T10:33:14;2.00;1.00
11132;DHT22;5620;53.570;9.718;2022-12-18T10:35:41;2.10;1.00
11132;DHT22;5620;53.570;9.718;2022-12-18T10:41:08;2.30;1.00
11132;DHT22;5620;53.570;9.718;2022-12-18T10:43:48;2.40;1.00
11132;DHT22;5620;53.570;9.718;2022-12-18T10:46:34;2.80;1.00
11132;DHT22;5620;53.570;9.718;2022-12-18T10:49:00;3.30;1.00
11132;DHT22;5620;53.570;9.718;2022-12-18T10:51:31;3.60;1.00
11132;DHT22;5620;53.570;9.718;2022-12-18T10:54:17;4.10;1.00
11132;DHT22;5620;53.570;9.718;2022-12-18T10:56:45;4.60;1.00
11132;DHT22;5620;53.570;9.718;2022-12-18T10:59:14;5.10;1.00
11132;DHT22;5620;53.570;9.718;2022-12-18T11:01:47;5.50;1.00
11132;DHT22;5620;53.570;9.718;2022-12-18T11:04:26;5.80;1.00
11132;DHT22;5620;53.570;9.718;2022-12-18T11:07:07;6.00;1.00
11132;DHT22;5620;53.570;9.718;2022-12-18T11:09:37;6.20;1.00
11132;DHT22;5620;53.570;9.718;2022-12-18T11:12:17;6.60;1.00
11132;DHT22;5620;53.570;9.718;2022-12-18T11:15:01;6.80;1.00
11132;DHT22;5620;53.570;9.718;2022-12-18T11:17:33;6.70;1.00
11132;DHT22;5620;53.570;9.718;2022-12-18T11:20:06;6.30;1.00
11132;DHT22;5620;53.570;9.718;2022-12-18T11:22:36;5.80;99.90
11132;DHT22;5620;53.570;9.718;2022-12-18T11:27:48;5.20;99.90
11132;DHT22;5620;53.570;9.718;2022-12-18T11:33:32;4.70;99.90
11132;DHT22;5620;53.570;9.718;2022-12-18T11:35:56;4.50;99.90
11132;DHT22;5620;53.570;9.718;2022-12-18T11:38:26;4.30;99.90
11132;DHT22;5620;53.570;9.718;2022-12-18T11:40:59;4.30;99.90
11132;DHT22;5620;53.570;9.718;2022-12-18T11:44:01;4.50;99.90
11132;DHT22;5620;53.570;9.718;2022-12-18T11:46:34;4.70;99.90
11132;DHT22;5620;53.570;9.718;2022-12-18T11:49:11;4.90;99.90
11132;DHT22;5620;53.570;9.718;2022-12-18T11:51:50;4.80;99.90
11132;DHT22;5620;53.570;9.718;2022-12-18T11:54:17;4.70;99.90
11132;DHT22;5620;53.570;9.718;2022-12-18T12:05:54;4.70;99.90
11132;DHT22;5620;53.570;9.718;2022-12-18T12:11:12;4.60;99.90
11132;DHT22;5620;53.570;9.718;2022-12-18T12:17:04;4.40;99.90
11132;DHT22;5620;53.570;9.718;2022-12-18T12:20:02;4.10;99.90
11132;DHT22;5620;53.570;9.718;2022-12-18T12:26:13;4.00;99.90
11132;DHT22;5620;53.570;9.718;2022-12-18T12:28:53;4.00;99.90
11132;DHT22;5620;53.570;9.718;2022-12-18T12:37:41;4.20;99.90
11132;DHT22;5620;53.570;9.718;2022-12-18T12:40:03;4.30;99.90
11132;DHT22;5620;53.570;9.718;2022-12-18T12:42:58;4.50;99.90
11132;DHT22;5620;53.570;9.718;2022-12-18T12:45:37;4.60;99.90
11132;DHT22;5620;53.570;9.718;2022-12-18T12:48:10;4.70;99.90
11132;DHT22;5620;53.570;9.718;2022-12-18T12:50:46;4.70;99.90
11132;DHT22;5620;53.570;9.718;2022-12-18T12:53:26;4.70;99.90
11132;DHT22;5620;53.570;9.718;2022-12-18T12:55:56;4.70;99.90
11132;DHT22;5620;53.570;9.718;2022-12-18T12:58:48;4.60;99.90
11132;DHT22;5620;53.570;9.718;2022-12-18T13:13:09;4.80;99.90
11132;DHT22;5620;53.570;9.718;2022-12-18T13:15:48;4.70;99.90
11132;DHT22;5620;53.570;9.718;2022-12-18T13:18:24;4.30;99.90
11132;DHT22;5620;53.570;9.718;2022-12-18T13:28:50;3.10;99.90
11132;DHT22;5620;53.570;9.718;2022-12-18T13:34:19;3.00;99.90
11132;DHT22;5620;53.570;9.718;2022-12-18T13:36:45;3.00;99.90
11132;DHT22;5620;53.570;9.718;2022-12-18T13:39:23;3.00;99.90
11132;DHT22;5620;53.570;9.718;2022-12-18T13:41:54;2.90;99.90
11132;DHT22;5620;53.570;9.718;2022-12-18T13:44:54;2.70;99.90
11132;DHT22;5620;53.570;9.718;2022-12-18T13:47:38;2.40;99.90
11132;DHT22;5620;53.570;9.718;2022-12-18T13:50:22;2.20;99.90
11132;DHT22;5620;53.570;9.718;2022-12-18T13:52:56;2.10;99.90
11132;DHT22;5620;53.570;9.718;2022-12-18T13:55:24;1.90;99.90
11132;DHT22;5620;53.570;9.718;2022-12-18T13:57:49;1.80;99.90
11132;DHT22;5620;53.570;9.718;2022-12-18T14:00:30;1.70;99.90
11132;DHT22;5620;53.570;9.718;2022-12-18T14:02:59;1.70;99.90
11132;DHT22;5620;53.570;9.718;2022-12-18T14:05:32;1.50;99.90
11132;DHT22;5620;53.570;9.718;2022-12-18T14:08:28;1.40;99.90
11132;DHT22;5620;53.570;9.718;2022-12-18T14:10:56;1.20;99.90
11132;DHT22;5620;53.570;9.718;2022-12-18T14:13:29;1.00;99.90
11132;DHT22;5620;53.570;9.718;2022-12-18T14:15:57;0.90;99.90
11132;DHT22;5620;53.570;9.718;2022-12-18T14:18:52;0.70;99.90
11132;DHT22;5620;53.570;9.718;2022-12-18T14:21:37;0.60;99.90
11132;DHT22;5620;53.570;9.718;2022-12-18T14:24:17;0.40;99.90
11132;DHT22;5620;53.570;9.718;2022-12-18T14:26:44;0.30;99.90
11132;DHT22;5620;53.570;9.718;2022-12-18T14:29:45;0.20;99.90
11132;DHT22;5620;53.570;9.718;2022-12-18T14:32:15;0.10;99.90
11132;DHT22;5620;53.570;9.718;2022-12-18T14:34:43;0.00;99.90
11132;DHT22;5620;53.570;9.718;2022-12-18T14:37:20;-0.10;99.90
11132;DHT22;5620;53.570;9.718;2022-12-18T14:39:59;-0.20;99.90
11132;DHT22;5620;53.570;9.718;2022-12-18T14:42:27;-0.30;99.90
11132;DHT22;5620;53.570;9.718;2022-12-18T14:47:59;-0.50;99.90
11132;DHT22;5620;53.570;9.718;2022-12-18T14:50:27;-0.60;99.90
11132;DHT22;5620;53.570;9.718;2022-12-18T14:52:54;-0.70;99.90
11132;DHT22;5620;53.570;9.718;2022-12-18T14:55:22;-0.80;99.90
11132;DHT22;5620;53.570;9.718;2022-12-18T14:57:52;-0.90;99.90
11132;DHT22;5620;53.570;9.718;2022-12-18T15:00:21;-1.00;99.90
11132;DHT22;5620;53.570;9.718;2022-12-18T15:02:56;-1.10;99.90
11132;DHT22;5620;53.570;9.718;2022-12-18T15:05:27;-1.10;99.90
11132;DHT22;5620;53.570;9.718;2022-12-18T15:07:56;-1.20;99.90
11132;DHT22;5620;53.570;9.718;2022-12-18T15:10:46;-1.30;99.90
11132;DHT22;5620;53.570;9.718;2022-12-18T15:13:34;-1.30;99.90
11132;DHT22;5620;53.570;9.718;2022-12-18T15:16:04;-1.40;99.90
11132;DHT22;5620;53.570;9.718;2022-12-18T15:18:41;-1.40;99.90
11132;DHT22;5620;53.570;9.718;2022-12-18T15:21:11;-1.40;99.90
11132;DHT22;5620;53.570;9.718;2022-12-18T15:23:53;-1.50;99.90
11132;DHT22;5620;53.570;9.718;2022-12-18T15:26:25;-1.50;99.90
11132;DHT22;5620;53.570;9.718;2022-12-18T15:28:57;-1.40;99.90
11132;DHT22;5620;53.570;9.718;2022-12-18T15:36:38;-1.30;99.90
11132;DHT22;5620;53.570;9.718;2022-12-18T15:39:05;-1.20;99.90
11132;DHT22;5620;53.570;9.718;2022-12-18T15:41:33;-1.20;99.90
11132;DHT22;5620;53.570;9.718;2022-12-18T15:43:59;-1.10;99.90
11132;DHT22;5620;53.570;9.718;2022-12-18T15:46:25;-1.10;99.90
11132;DHT22;5620;53.570;9.718;2022-12-18T15:48:58;-1.00;99.90
11132;DHT22;5620;53.570;9.718;2022-12-18T15:51:42;-1.00;99.90
11132;DHT22;5620;53.570;9.718;2022-12-18T15:54:11;-0.90;99.90
11132;DHT22;5620;53.570;9.718;2022-12-18T15:56:41;-1.00;99.90
11132;DHT22;5620;53.570;9.718;2022-12-18T15:59:17;-0.90;99.90
11132;DHT22;5620;53.570;9.718;2022-12-18T16:01:47;-0.90;99.90
11132;DHT22;5620;53.570;9.718;2022-12-18T16:04:15;-0.90;99.90
11132;DHT22;5620;53.570;9.718;2022-12-18T16:06:41;-0.90;99.90
11132;DHT22;5620;53.570;9.718;2022-12-18T16:09:09;-0.90;99.90
11132;DHT22;5620;53.570;9.718;2022-12-18T16:11:36;-0.90;99.90
11132;DHT22;5620;53.570;9.718;2022-12-18T16:14:19;-0.80;99.90
11132;DHT22;5620;53.570;9.718;2022-12-18T16:16:48;-0.90;99.90
11132;DHT22;5620;53.570;9.718;2022-12-18T16:19:17;-0.90;99.90
11132;DHT22;5620;53.570;9.718;2022-12-18T16:21:43;-0.90;99.90
11132;DHT22;5620;53.570;9.718;2022-12-18T16:24:30;-0.90;99.90
11132;DHT22;5620;53.570;9.718;2022-12-18T16:26:57;-0.90;99.90
11132;DHT22;5620;53.570;9.718;2022-12-18T16:29:23;-0.90;99.90
11132;DHT22;5620;53.570;9.718;2022-12-18T16:31:49;-0.90;99.90
11132;DHT22;5620;53.570;9.718;2022-12-18T16:34:24;-0.90;99.90
11132;DHT22;5620;53.570;9.718;2022-12-18T16:36:50;-0.90;99.90
11132;DHT22;5620;53.570;9.718;2022-12-18T16:39:17;-0.90;99.90
11132;DHT22;5620;53.570;9.718;2022-12-18T16:41:43;-0.90;99.90
11132;DHT22;5620;53.570;9.718;2022-12-18T16:44:10;-0.90;99.90
11132;DHT22;5620;53.570;9.718;2022-12-18T16:46:38;-0.90;99.90
11132;DHT22;5620;53.570;9.718;2022-12-18T16:49:05;-0.80;99.90
11132;DHT22;5620;53.570;9.718;2022-12-18T16:51:32;-0.80;99.90
11132;DHT22;5620;53.570;9.718;2022-12-18T16:53:58;-0.90;99.90
11132;DHT22;5620;53.570;9.718;2022-12-18T16:56:24;-0.90;99.90
11132;DHT22;5620;53.570;9.718;2022-12-18T16:58:54;-0.90;99.90
11132;DHT22;5620;53.570;9.718;2022-12-18T17:01:23;-0.90;99.90
11132;DHT22;5620;53.570;9.718;2022-12-18T17:03:56;-0.90;99.90
11132;DHT22;5620;53.570;9.718;2022-12-18T17:06:23;-0.80;99.90
11132;DHT22;5620;53.570;9.718;2022-12-18T17:09:03;-0.90;99.90
11132;DHT22;5620;53.570;9.718;2022-12-18T17:11:30;-0.80;99.90
11132;DHT22;5620;53.570;9.718;2022-12-18T17:13:58;-0.80;99.90
11132;DHT22;5620;53.570;9.718;2022-12-18T17:16:26;-0.90;99.90
11132;DHT22;5620;53.570;9.718;2022-12-18T17:18:53;-0.90;99.90
11132;DHT22;5620;53.570;9.718;2022-12-18T17:21:20;-0.80;99.90
11132;DHT22;5620;53.570;9.718;2022-12-18T17:23:46;-0.80;99.90
11132;DHT22;5620;53.570;9.718;2022-12-18T17:26:13;-0.80;99.90
11132;DHT22;5620;53.570;9.718;2022-12-18T17:28:41;-0.80;99.90
11132;DHT22;5620;53.570;9.718;2022-12-18T17:31:21;-0.80;99.90
11132;DHT22;5620;53.570;9.718;2022-12-18T17:33:49;-0.80;99.90
11132;DHT22;5620;53.570;9.718;2022-12-18T17:36:18;-0.80;99.90
11132;DHT22;5620;53.570;9.718;2022-12-18T17:38:50;-0.80;99.90
11132;DHT22;5620;53.570;9.718;2022-12-18T17:41:20;-0.80;99.90
11132;DHT22;5620;53.570;9.718;2022-12-18T17:44:01;-0.80;99.90
11132;DHT22;5620;53.570;9.718;2022-12-18T17:46:29;-0.80;99.90
11132;DHT22;5620;53.570;9.718;2022-12-18T17:48:56;-0.80;99.90
11132;DHT22;5620;53.570;9.718;2022-12-18T17:51:24;-0.70;99.90